sensor_id;sensor_type;location;lat;lon;timestamp;P1;durP1;ratioP1;P2;durP2;ratioP2
68744;SDS011;66104;45.456;11.064;2023-05-21T00:00:17;18.80;;;14.20;;
68744;SDS011;66104;45.456;11.064;2023-05-21T00:02:54;17.10;;;13.10;;
68744;SDS011;66104;45.456;11.064;2023-05-21T00:05:31;17.20;;;11.80;;
68744;SDS011;66104;45.456;11.064;2023-05-21T00:08:09;13.40;;;10.70;;
68744;SDS011;66104;45.456;11.064;2023-05-21T00:10:46;15.50;;;11.10;;
68744;SDS011;66104;45.456;11.064;2023-05-21T00:13:23;15.60;;;11.10;;
68744;SDS011;66104;45.456;11.064;2023-05-21T00:16:02;16.00;;;10.90;;
68744;SDS011;66104;45.456;11.064;2023-05-21T00:18:41;12.60;;;9.00;;
68744;SDS011;66104;45.456;11.064;2023-05-21T00:21:20;11.50;;;9.00;;
68744;SDS011;66104;45.456;11.064;2023-05-21T00:23:56;12.40;;;9.60;;
68744;SDS011;66104;45.456;11.064;2023-05-21T00:26:33;11.70;;;9.10;;
68744;SDS011;66104;45.456;11.064;2023-05-21T00:29:10;11.50;;;7.80;;
68744;SDS011;66104;45.456;11.064;2023-05-21T00:31:47;11.20;;;7.80;;
68744;SDS011;66104;45.456;11.064;2023-05-21T00:34:23;10.10;;;7.60;;
68744;SDS011;66104;45.456;11.064;2023-05-21T00:37:00;10.70;;;8.50;;
68744;SDS011;66104;45.456;11.064;2023-05-21T00:39:38;9.90;;;7.90;;
68744;SDS011;66104;45.456;11.064;2023-05-21T00:42:16;11.60;;;8.40;;
68744;SDS011;66104;45.456;11.064;2023-05-21T00:44:58;10.10;;;8.00;;
68744;SDS011;66104;45.456;11.064;2023-05-21T00:47:37;10.70;;;8.50;;
68744;SDS011;66104;45.456;11.064;2023-05-21T00:50:15;9.80;;;7.70;;
68744;SDS011;66104;45.456;11.064;2023-05-21T00:52:53;12.90;;;9.60;;
68744;SDS011;66104;45.456;11.064;2023-05-21T00:55:29;15.40;;;9.60;;
68744;SDS011;66104;45.456;11.064;2023-05-21T00:58:07;14.00;;;10.70;;
68744;SDS011;66104;45.456;11.064;2023-05-21T01:00:44;14.00;;;11.40;;
68744;SDS011;66104;45.456;11.064;2023-05-21T01:03:24;13.80;;;11.20;;
68744;SDS011;66104;45.456;11.064;2023-05-21T01:06:01;14.40;;;11.20;;
68744;SDS011;66104;45.456;11.064;2023-05-21T01:08:39;19.10;;;11.70;;
68744;SDS011;66104;45.456;11.064;2023-05-21T01:11:21;17.40;;;12.30;;
68744;SDS011;66104;45.456;11.064;2023-05-21T01:14:06;15.30;;;13.00;;
68744;SDS011;66104;45.456;11.064;2023-05-21T01:16:45;18.20;;;12.60;;
68744;SDS011;66104;45.456;11.064;2023-05-21T01:19:23;13.40;;;11.10;;
68744;SDS011;66104;45.456;11.064;2023-05-21T01:22:06;15.90;;;12.00;;
68744;SDS011;66104;45.456;11.064;2023-05-21T01:24:45;18.10;;;13.10;;
68744;SDS011;66104;45.456;11.064;2023-05-21T01:27:26;15.70;;;12.80;;
68744;SDS011;66104;45.456;11.064;2023-05-21T01:30:02;18.50;;;13.70;;
68744;SDS011;66104;45.456;11.064;2023-05-21T01:32:43;18.60;;;13.80;;
68744;SDS011;66104;45.456;11.064;2023-05-21T01:35:30;18.60;;;13.60;;
68744;SDS011;66104;45.456;11.064;2023-05-21T01:38:14;19.90;;;13.40;;
68744;SDS011;66104;45.456;11.064;2023-05-21T01:40:58;18.80;;;15.40;;
68744;SDS011;66104;45.456;11.064;2023-05-21T01:43:40;21.00;;;14.90;;
68744;SDS011;66104;45.456;11.064;2023-05-21T01:46:25;21.40;;;16.00;;
68744;SDS011;66104;45.456;11.064;2023-05-21T01:49:06;19.20;;;15.20;;
68744;SDS011;66104;45.456;11.064;2023-05-21T01:51:45;21.30;;;15.60;;
68744;SDS011;66104;45.456;11.064;2023-05-21T01:54:22;19.70;;;15.10;;
68744;SDS011;66104;45.456;11.064;2023-05-21T01:56:59;21.60;;;15.10;;
68744;SDS011;66104;45.456;11.064;2023-05-21T01:59:37;20.40;;;15.10;;
68744;SDS011;66104;45.456;11.064;2023-05-21T02:02:15;21.10;;;16.70;;
68744;SDS011;66104;45.456;11.064;2023-05-21T02:04:51;20.40;;;15.10;;
68744;SDS011;66104;45.456;11.064;2023-05-21T02:07:28;21.00;;;16.10;;
68744;SDS011;66104;45.456;11.064;2023-05-21T02:10:08;20.30;;;16.20;;
68744;SDS011;66104;45.456;11.064;2023-05-21T02:12:46;19.90;;;14.70;;
68744;SDS011;66104;45.456;11.064;2023-05-21T02:15:23;22.70;;;15.80;;
68744;SDS011;66104;45.456;11.064;2023-05-21T02:18:00;23.60;;;17.00;;
68744;SDS011;66104;45.456;11.064;2023-05-21T02:20:39;20.90;;;16.10;;
68744;SDS011;66104;45.456;11.064;2023-05-21T02:23:16;23.50;;;17.90;;
68744;SDS011;66104;45.456;11.064;2023-05-21T02:25:55;23.00;;;17.40;;
68744;SDS011;66104;45.456;11.064;2023-05-21T02:28:32;24.20;;;17.20;;
68744;SDS011;66104;45.456;11.064;2023-05-21T02:31:10;22.10;;;16.50;;
68744;SDS011;66104;45.456;11.064;2023-05-21T02:33:46;24.70;;;18.10;;
68744;SDS011;66104;45.456;11.064;2023-05-21T02:36:23;23.50;;;17.70;;
68744;SDS011;66104;45.456;11.064;2023-05-21T02:39:03;21.70;;;16.70;;
68744;SDS011;66104;45.456;11.064;2023-05-21T02:41:40;24.50;;;18.30;;
68744;SDS011;66104;45.456;11.064;2023-05-21T02:44:19;23.90;;;18.20;;
68744;SDS011;66104;45.456;11.064;2023-05-21T02:46:56;23.30;;;16.60;;
68744;SDS011;66104;45.456;11.064;2023-05-21T02:49:34;21.10;;;17.20;;
68744;SDS011;66104;45.456;11.064;2023-05-21T02:52:11;22.60;;;17.80;;
68744;SDS011;66104;45.456;11.064;2023-05-21T02:54:48;24.60;;;19.10;;
68744;SDS011;66104;45.456;11.064;2023-05-21T02:57:26;21.40;;;16.80;;
68744;SDS011;66104;45.456;11.064;2023-05-21T03:00:04;23.00;;;17.60;;
68744;SDS011;66104;45.456;11.064;2023-05-21T03:02:43;24.00;;;16.80;;
68744;SDS011;66104;45.456;11.064;2023-05-21T03:05:20;24.70;;;17.90;;
68744;SDS011;66104;45.456;11.064;2023-05-21T03:07:57;21.20;;;16.80;;
68744;SDS011;66104;45.456;11.064;2023-05-21T03:10:34;22.10;;;17.50;;
68744;SDS011;66104;45.456;11.064;2023-05-21T03:13:10;20.10;;;15.90;;
68744;SDS011;66104;45.456;11.064;2023-05-21T03:15:47;20.00;;;15.10;;
68744;SDS011;66104;45.456;11.064;2023-05-21T03:18:27;22.60;;;18.10;;
68744;SDS011;66104;45.456;11.064;2023-05-21T03:21:04;19.60;;;15.40;;
68744;SDS011;66104;45.456;11.064;2023-05-21T03:23:43;21.80;;;15.90;;
68744;SDS011;66104;45.456;11.064;2023-05-21T03:26:20;19.70;;;14.80;;
68744;SDS011;66104;45.456;11.064;2023-05-21T03:28:58;17.80;;;13.80;;
68744;SDS011;66104;45.456;11.064;2023-05-21T03:31:37;21.60;;;15.40;;
68744;SDS011;66104;45.456;11.064;2023-05-21T03:34:16;21.80;;;15.40;;
68744;SDS011;66104;45.456;11.064;2023-05-21T03:36:53;19.40;;;14.80;;
68744;SDS011;66104;45.456;11.064;2023-05-21T03:39:32;19.00;;;14.90;;
68744;SDS011;66104;45.456;11.064;2023-05-21T03:42:10;18.80;;;14.80;;
68744;SDS011;66104;45.456;11.064;2023-05-21T03:44:51;22.80;;;14.90;;
68744;SDS011;66104;45.456;11.064;2023-05-21T03:47:47;20.70;;;15.70;;
68744;SDS011;66104;45.456;11.064;2023-05-21T03:50:24;23.80;;;15.00;;
68744;SDS011;66104;45.456;11.064;2023-05-21T03:53:02;17.80;;;15.10;;
68744;SDS011;66104;45.456;11.064;2023-05-21T03:55:38;18.10;;;14.30;;
68744;SDS011;66104;45.456;11.064;2023-05-21T03:58:15;18.80;;;14.20;;
68744;SDS011;66104;45.456;11.064;2023-05-21T04:00:51;17.20;;;12.70;;
68744;SDS011;66104;45.456;11.064;2023-05-21T04:03:27;14.10;;;11.50;;
68744;SDS011;66104;45.456;11.064;2023-05-21T04:06:09;12.90;;;10.40;;
68744;SDS011;66104;45.456;11.064;2023-05-21T04:08:46;13.10;;;10.80;;
68744;SDS011;66104;45.456;11.064;2023-05-21T04:11:23;14.40;;;10.40;;
68744;SDS011;66104;45.456;11.064;2023-05-21T04:14:02;11.40;;;9.10;;
68744;SDS011;66104;45.456;11.064;2023-05-21T04:16:38;11.70;;;9.20;;
68744;SDS011;66104;45.456;11.064;2023-05-21T04:19:17;12.90;;;8.50;;
68744;SDS011;66104;45.456;11.064;2023-05-21T04:21:55;11.80;;;7.20;;
68744;SDS011;66104;45.456;11.064;2023-05-21T04:24:33;11.30;;;8.40;;
68744;SDS011;66104;45.456;11.064;2023-05-21T04:27:18;12.20;;;7.50;;
68744;SDS011;66104;45.456;11.064;2023-05-21T04:30:00;9.80;;;7.40;;
68744;SDS011;66104;45.456;11.064;2023-05-21T04:32:38;12.60;;;8.20;;
68744;SDS011;66104;45.456;11.064;2023-05-21T04:35:16;10.10;;;8.00;;
68744;SDS011;66104;45.456;11.064;2023-05-21T04:37:52;12.10;;;8.40;;
68744;SDS011;66104;45.456;11.064;2023-05-21T04:40:30;13.20;;;8.10;;
68744;SDS011;66104;45.456;11.064;2023-05-21T04:43:08;12.10;;;8.00;;
68744;SDS011;66104;45.456;11.064;2023-05-21T04:45:45;9.00;;;7.30;;
68744;SDS011;66104;45.456;11.064;2023-05-21T04:48:22;10.40;;;7.70;;
68744;SDS011;66104;45.456;11.064;2023-05-21T04:51:02;11.50;;;7.40;;
68744;SDS011;66104;45.456;11.064;2023-05-21T04:53:42;9.90;;;7.80;;
68744;SDS011;66104;45.456;11.064;2023-05-21T04:56:20;10.90;;;7.20;;
68744;SDS011;66104;45.456;11.064;2023-05-21T04:59:02;11.30;;;7.90;;
68744;SDS011;66104;45.456;11.064;2023-05-21T05:01:38;12.90;;;7.20;;
68744;SDS011;66104;45.456;11.064;2023-05-21T05:04:15;10.90;;;7.70;;
68744;SDS011;66104;45.456;11.064;2023-05-21T05:06:52;10.70;;;7.00;;
68744;SDS011;66104;45.456;11.064;2023-05-21T05:09:28;10.40;;;8.40;;
68744;SDS011;66104;45.456;11.064;2023-05-21T05:12:08;9.20;;;7.30;;
68744;SDS011;66104;45.456;11.064;2023-05-21T05:14:47;8.50;;;6.80;;
68744;SDS011;66104;45.456;11.064;2023-05-21T05:17:24;9.30;;;7.80;;
68744;SDS011;66104;45.456;11.064;2023-05-21T05:20:03;10.30;;;7.30;;
68744;SDS011;66104;45.456;11.064;2023-05-21T05:22:44;11.10;;;8.60;;
68744;SDS011;66104;45.456;11.064;2023-05-21T05:25:21;9.40;;;7.30;;
68744;SDS011;66104;45.456;11.064;2023-05-21T05:27:58;10.80;;;7.40;;
68744;SDS011;66104;45.456;11.064;2023-05-21T05:30:35;9.80;;;7.90;;
68744;SDS011;66104;45.456;11.064;2023-05-21T05:33:26;9.50;;;7.70;;
68744;SDS011;66104;45.456;11.064;2023-05-21T05:36:03;11.40;;;8.50;;
68744;SDS011;66104;45.456;11.064;2023-05-21T05:38:40;15.50;;;10.40;;
68744;SDS011;66104;45.456;11.064;2023-05-21T05:41:17;16.30;;;9.40;;
68744;SDS011;66104;45.456;11.064;2023-05-21T05:43:54;11.90;;;8.70;;
68744;SDS011;66104;45.456;11.064;2023-05-21T05:46:33;14.10;;;9.70;;
68744;SDS011;66104;45.456;11.064;2023-05-21T05:49:11;12.40;;;9.10;;
68744;SDS011;66104;45.456;11.064;2023-05-21T05:51:49;11.80;;;9.80;;
68744;SDS011;66104;45.456;11.064;2023-05-21T05:54:25;11.40;;;9.80;;
68744;SDS011;66104;45.456;11.064;2023-05-21T05:57:02;11.10;;;9.00;;
68744;SDS011;66104;45.456;11.064;2023-05-21T05:59:39;13.80;;;10.10;;
68744;SDS011;66104;45.456;11.064;2023-05-21T06:02:18;12.00;;;10.30;;
68744;SDS011;66104;45.456;11.064;2023-05-21T06:04:56;15.40;;;11.40;;
68744;SDS011;66104;45.456;11.064;2023-05-21T06:07:33;13.90;;;11.30;;
68744;SDS011;66104;45.456;11.064;2023-05-21T06:10:13;14.00;;;10.10;;
68744;SDS011;66104;45.456;11.064;2023-05-21T06:12:51;12.50;;;10.70;;
68744;SDS011;66104;45.456;11.064;2023-05-21T06:15:28;12.70;;;11.00;;
68744;SDS011;66104;45.456;11.064;2023-05-21T06:18:05;15.60;;;11.10;;
68744;SDS011;66104;45.456;11.064;2023-05-21T06:20:42;13.60;;;10.70;;
68744;SDS011;66104;45.456;11.064;2023-05-21T06:23:19;12.00;;;10.70;;
68744;SDS011;66104;45.456;11.064;2023-05-21T06:25:58;13.70;;;10.90;;
68744;SDS011;66104;45.456;11.064;2023-05-21T06:28:35;13.60;;;10.70;;
68744;SDS011;66104;45.456;11.064;2023-05-21T06:31:12;13.40;;;10.40;;
68744;SDS011;66104;45.456;11.064;2023-05-21T06:33:50;12.20;;;9.00;;
68744;SDS011;66104;45.456;11.064;2023-05-21T06:36:30;13.70;;;8.30;;
68744;SDS011;66104;45.456;11.064;2023-05-21T06:39:06;10.10;;;8.20;;
68744;SDS011;66104;45.456;11.064;2023-05-21T06:41:45;12.10;;;8.60;;
68744;SDS011;66104;45.456;11.064;2023-05-21T06:44:44;9.70;;;8.10;;
68744;SDS011;66104;45.456;11.064;2023-05-21T06:47:31;10.10;;;7.90;;
68744;SDS011;66104;45.456;11.064;2023-05-21T06:50:12;10.80;;;8.20;;
68744;SDS011;66104;45.456;11.064;2023-05-21T06:52:50;10.20;;;8.10;;
68744;SDS011;66104;45.456;11.064;2023-05-21T06:55:26;11.10;;;7.90;;
68744;SDS011;66104;45.456;11.064;2023-05-21T06:58:18;11.60;;;8.00;;
68744;SDS011;66104;45.456;11.064;2023-05-21T07:00:56;12.00;;;7.50;;
68744;SDS011;66104;45.456;11.064;2023-05-21T07:03:33;11.70;;;8.30;;
68744;SDS011;66104;45.456;11.064;2023-05-21T07:06:12;10.40;;;7.80;;
68744;SDS011;66104;45.456;11.064;2023-05-21T07:08:49;9.10;;;7.00;;
68744;SDS011;66104;45.456;11.064;2023-05-21T07:11:26;8.80;;;7.10;;
68744;SDS011;66104;45.456;11.064;2023-05-21T07:14:03;8.50;;;7.30;;
68744;SDS011;66104;45.456;11.064;2023-05-21T07:16:40;10.00;;;7.30;;
68744;SDS011;66104;45.456;11.064;2023-05-21T07:19:17;9.90;;;6.70;;
68744;SDS011;66104;45.456;11.064;2023-05-21T07:21:54;13.70;;;8.30;;
68744;SDS011;66104;45.456;11.064;2023-05-21T07:24:31;10.80;;;7.50;;
68744;SDS011;66104;45.456;11.064;2023-05-21T07:27:08;9.20;;;6.80;;
68744;SDS011;66104;45.456;11.064;2023-05-21T07:29:56;9.50;;;7.70;;
68744;SDS011;66104;45.456;11.064;2023-05-21T07:32:33;9.30;;;7.90;;
68744;SDS011;66104;45.456;11.064;2023-05-21T07:35:12;8.30;;;7.00;;
68744;SDS011;66104;45.456;11.064;2023-05-21T07:37:49;10.50;;;7.80;;
68744;SDS011;66104;45.456;11.064;2023-05-21T07:40:25;9.50;;;7.00;;
68744;SDS011;66104;45.456;11.064;2023-05-21T07:43:04;9.30;;;7.60;;
68744;SDS011;66104;45.456;11.064;2023-05-21T07:45:43;9.10;;;7.60;;
68744;SDS011;66104;45.456;11.064;2023-05-21T07:48:19;9.90;;;6.90;;
68744;SDS011;66104;45.456;11.064;2023-05-21T07:51:00;9.70;;;6.90;;
68744;SDS011;66104;45.456;11.064;2023-05-21T07:53:38;10.80;;;7.50;;
68744;SDS011;66104;45.456;11.064;2023-05-21T07:56:15;9.00;;;6.90;;
68744;SDS011;66104;45.456;11.064;2023-05-21T07:58:52;10.40;;;7.40;;
68744;SDS011;66104;45.456;11.064;2023-05-21T08:01:32;9.40;;;6.80;;
68744;SDS011;66104;45.456;11.064;2023-05-21T08:04:10;11.60;;;7.40;;
68744;SDS011;66104;45.456;11.064;2023-05-21T08:06:47;7.90;;;6.60;;
68744;SDS011;66104;45.456;11.064;2023-05-21T08:09:24;9.60;;;6.80;;
68744;SDS011;66104;45.456;11.064;2023-05-21T08:12:01;8.80;;;6.50;;
68744;SDS011;66104;45.456;11.064;2023-05-21T08:14:39;9.50;;;6.70;;
68744;SDS011;66104;45.456;11.064;2023-05-21T08:17:17;9.20;;;6.70;;
68744;SDS011;66104;45.456;11.064;2023-05-21T08:19:54;9.70;;;6.80;;
68744;SDS011;66104;45.456;11.064;2023-05-21T08:22:32;9.40;;;7.00;;
68744;SDS011;66104;45.456;11.064;2023-05-21T08:25:13;9.60;;;7.10;;
68744;SDS011;66104;45.456;11.064;2023-05-21T08:27:50;10.70;;;7.30;;
68744;SDS011;66104;45.456;11.064;2023-05-21T08:30:26;9.80;;;7.00;;
68744;SDS011;66104;45.456;11.064;2023-05-21T08:33:03;9.10;;;7.20;;
68744;SDS011;66104;45.456;11.064;2023-05-21T08:35:41;8.60;;;6.50;;
68744;SDS011;66104;45.456;11.064;2023-05-21T08:38:41;7.50;;;6.40;;
68744;SDS011;66104;45.456;11.064;2023-05-21T08:41:26;8.80;;;6.30;;
68744;SDS011;66104;45.456;11.064;2023-05-21T08:44:04;12.00;;;7.20;;
68744;SDS011;66104;45.456;11.064;2023-05-21T08:46:47;9.40;;;6.50;;
68744;SDS011;66104;45.456;11.064;2023-05-21T08:49:27;9.20;;;6.60;;
68744;SDS011;66104;45.456;11.064;2023-05-21T08:52:09;9.40;;;7.00;;
68744;SDS011;66104;45.456;11.064;2023-05-21T08:54:47;7.50;;;6.50;;
68744;SDS011;66104;45.456;11.064;2023-05-21T08:57:26;12.90;;;6.90;;
68744;SDS011;66104;45.456;11.064;2023-05-21T09:00:07;8.60;;;7.30;;
68744;SDS011;66104;45.456;11.064;2023-05-21T09:02:47;9.90;;;7.20;;
68744;SDS011;66104;45.456;11.064;2023-05-21T09:05:29;8.90;;;6.80;;
68744;SDS011;66104;45.456;11.064;2023-05-21T09:08:10;7.30;;;6.20;;
68744;SDS011;66104;45.456;11.064;2023-05-21T09:11:06;7.30;;;5.60;;
68744;SDS011;66104;45.456;11.064;2023-05-21T09:13:48;8.80;;;7.00;;
68744;SDS011;66104;45.456;11.064;2023-05-21T09:16:31;8.60;;;6.70;;
68744;SDS011;66104;45.456;11.064;2023-05-21T09:19:08;8.50;;;6.20;;
68744;SDS011;66104;45.456;11.064;2023-05-21T09:21:46;8.50;;;6.50;;
68744;SDS011;66104;45.456;11.064;2023-05-21T09:24:26;9.00;;;6.60;;
68744;SDS011;66104;45.456;11.064;2023-05-21T09:27:10;7.10;;;5.80;;
68744;SDS011;66104;45.456;11.064;2023-05-21T09:29:50;9.40;;;6.10;;
68744;SDS011;66104;45.456;11.064;2023-05-21T09:32:27;8.80;;;6.20;;
68744;SDS011;66104;45.456;11.064;2023-05-21T09:35:11;11.50;;;7.60;;
68744;SDS011;66104;45.456;11.064;2023-05-21T09:37:48;8.80;;;5.80;;
68744;SDS011;66104;45.456;11.064;2023-05-21T09:40:26;8.20;;;6.80;;
68744;SDS011;66104;45.456;11.064;2023-05-21T09:43:04;8.40;;;6.60;;
68744;SDS011;66104;45.456;11.064;2023-05-21T09:45:51;8.30;;;5.70;;
68744;SDS011;66104;45.456;11.064;2023-05-21T09:48:38;8.40;;;6.00;;
68744;SDS011;66104;45.456;11.064;2023-05-21T09:51:19;10.70;;;6.80;;
68744;SDS011;66104;45.456;11.064;2023-05-21T09:53:57;8.70;;;6.50;;
68744;SDS011;66104;45.456;11.064;2023-05-21T09:56:35;9.90;;;7.20;;
68744;SDS011;66104;45.456;11.064;2023-05-21T09:59:12;10.00;;;6.50;;
68744;SDS011;66104;45.456;11.064;2023-05-21T10:01:52;7.80;;;5.60;;
68744;SDS011;66104;45.456;11.064;2023-05-21T10:04:30;9.00;;;6.60;;
68744;SDS011;66104;45.456;11.064;2023-05-21T10:07:08;10.10;;;6.80;;
68744;SDS011;66104;45.456;11.064;2023-05-21T10:09:46;14.00;;;7.10;;
68744;SDS011;66104;45.456;11.064;2023-05-21T10:12:23;13.80;;;6.60;;
68744;SDS011;66104;45.456;11.064;2023-05-21T10:15:06;9.10;;;7.00;;
68744;SDS011;66104;45.456;11.064;2023-05-21T10:17:47;8.80;;;6.50;;
68744;SDS011;66104;45.456;11.064;2023-05-21T10:20:25;7.20;;;5.50;;
68744;SDS011;66104;45.456;11.064;2023-05-21T10:23:03;10.10;;;7.20;;
68744;SDS011;66104;45.456;11.064;2023-05-21T10:25:40;10.40;;;7.30;;
68744;SDS011;66104;45.456;11.064;2023-05-21T10:28:18;9.30;;;6.70;;
68744;SDS011;66104;45.456;11.064;2023-05-21T10:30:56;8.70;;;6.60;;
68744;SDS011;66104;45.456;11.064;2023-05-21T10:33:33;11.10;;;7.00;;
68744;SDS011;66104;45.456;11.064;2023-05-21T10:36:16;11.60;;;6.50;;
68744;SDS011;66104;45.456;11.064;2023-05-21T10:38:52;11.20;;;7.20;;
68744;SDS011;66104;45.456;11.064;2023-05-21T10:41:34;10.60;;;7.10;;
68744;SDS011;66104;45.456;11.064;2023-05-21T10:44:23;12.10;;;6.90;;
68744;SDS011;66104;45.456;11.064;2023-05-21T10:50:55;9.40;;;6.50;;
68744;SDS011;66104;45.456;11.064;2023-05-21T10:54:26;9.90;;;6.10;;
68744;SDS011;66104;45.456;11.064;2023-05-21T11:00:44;9.10;;;6.10;;
68744;SDS011;66104;45.456;11.064;2023-05-21T11:03:21;11.40;;;5.80;;
68744;SDS011;66104;45.456;11.064;2023-05-21T11:06:00;8.80;;;6.60;;
68744;SDS011;66104;45.456;11.064;2023-05-21T11:08:40;9.00;;;5.90;;
68744;SDS011;66104;45.456;11.064;2023-05-21T11:11:57;11.20;;;6.70;;
68744;SDS011;66104;45.456;11.064;2023-05-21T11:14:37;10.00;;;6.20;;
68744;SDS011;66104;45.456;11.064;2023-05-21T11:17:34;10.20;;;6.20;;
68744;SDS011;66104;45.456;11.064;2023-05-21T11:20:15;9.10;;;6.50;;
68744;SDS011;66104;45.456;11.064;2023-05-21T11:22:53;12.90;;;6.90;;
68744;SDS011;66104;45.456;11.064;2023-05-21T11:25:35;9.60;;;6.60;;
68744;SDS011;66104;45.456;11.064;2023-05-21T11:28:12;9.50;;;6.70;;
68744;SDS011;66104;45.456;11.064;2023-05-21T11:31:22;8.30;;;6.60;;
68744;SDS011;66104;45.456;11.064;2023-05-21T11:34:17;15.50;;;6.60;;
68744;SDS011;66104;45.456;11.064;2023-05-21T11:37:23;9.70;;;6.50;;
68744;SDS011;66104;45.456;11.064;2023-05-21T11:40:18;8.20;;;6.40;;
68744;SDS011;66104;45.456;11.064;2023-05-21T11:43:01;10.10;;;6.30;;
68744;SDS011;66104;45.456;11.064;2023-05-21T11:45:38;8.80;;;6.20;;
68744;SDS011;66104;45.456;11.064;2023-05-21T11:48:17;12.60;;;6.80;;
68744;SDS011;66104;45.456;11.064;2023-05-21T11:50:59;12.50;;;6.70;;
68744;SDS011;66104;45.456;11.064;2023-05-21T11:53:35;9.80;;;6.70;;
68744;SDS011;66104;45.456;11.064;2023-05-21T11:56:15;9.80;;;6.70;;
68744;SDS011;66104;45.456;11.064;2023-05-21T11:58:57;9.20;;;6.20;;
68744;SDS011;66104;45.456;11.064;2023-05-21T12:01:37;10.80;;;6.20;;
68744;SDS011;66104;45.456;11.064;2023-05-21T12:04:14;10.30;;;6.70;;
68744;SDS011;66104;45.456;11.064;2023-05-21T12:06:52;10.10;;;6.70;;
68744;SDS011;66104;45.456;11.064;2023-05-21T12:09:28;8.80;;;6.70;;
68744;SDS011;66104;45.456;11.064;2023-05-21T12:12:14;8.70;;;6.60;;
68744;SDS011;66104;45.456;11.064;2023-05-21T12:14:52;7.70;;;5.90;;
68744;SDS011;66104;45.456;11.064;2023-05-21T12:17:30;9.10;;;6.80;;
68744;SDS011;66104;45.456;11.064;2023-05-21T12:20:12;9.80;;;6.60;;
68744;SDS011;66104;45.456;11.064;2023-05-21T12:22:52;8.50;;;6.40;;
68744;SDS011;66104;45.456;11.064;2023-05-21T12:25:30;7.50;;;5.70;;
68744;SDS011;66104;45.456;11.064;2023-05-21T12:28:08;9.90;;;6.50;;
68744;SDS011;66104;45.456;11.064;2023-05-21T12:30:46;9.00;;;6.00;;
68744;SDS011;66104;45.456;11.064;2023-05-21T12:33:31;8.50;;;6.40;;
68744;SDS011;66104;45.456;11.064;2023-05-21T12:36:09;8.20;;;6.50;;
68744;SDS011;66104;45.456;11.064;2023-05-21T12:38:54;11.20;;;7.20;;
68744;SDS011;66104;45.456;11.064;2023-05-21T12:41:34;10.60;;;6.70;;
68744;SDS011;66104;45.456;11.064;2023-05-21T12:44:12;9.60;;;6.70;;
68744;SDS011;66104;45.456;11.064;2023-05-21T12:46:51;7.70;;;6.00;;
68744;SDS011;66104;45.456;11.064;2023-05-21T12:49:38;8.50;;;6.60;;
68744;SDS011;66104;45.456;11.064;2023-05-21T12:52:17;10.20;;;7.20;;
68744;SDS011;66104;45.456;11.064;2023-05-21T12:54:54;9.20;;;6.90;;
68744;SDS011;66104;45.456;11.064;2023-05-21T12:57:37;12.90;;;6.80;;
68744;SDS011;66104;45.456;11.064;2023-05-21T13:00:16;8.20;;;6.00;;
68744;SDS011;66104;45.456;11.064;2023-05-21T13:03:01;7.20;;;5.30;;
68744;SDS011;66104;45.456;11.064;2023-05-21T13:05:41;9.00;;;6.20;;
68744;SDS011;66104;45.456;11.064;2023-05-21T13:08:18;8.60;;;6.30;;
68744;SDS011;66104;45.456;11.064;2023-05-21T13:10:54;8.00;;;6.50;;
68744;SDS011;66104;45.456;11.064;2023-05-21T13:13:33;8.50;;;6.30;;
68744;SDS011;66104;45.456;11.064;2023-05-21T13:16:11;8.00;;;6.30;;
68744;SDS011;66104;45.456;11.064;2023-05-21T13:18:49;11.20;;;5.90;;
68744;SDS011;66104;45.456;11.064;2023-05-21T13:21:26;10.70;;;6.40;;
68744;SDS011;66104;45.456;11.064;2023-05-21T13:24:02;8.60;;;6.20;;
68744;SDS011;66104;45.456;11.064;2023-05-21T13:26:43;9.30;;;6.70;;
68744;SDS011;66104;45.456;11.064;2023-05-21T13:29:18;9.10;;;6.00;;
68744;SDS011;66104;45.456;11.064;2023-05-21T13:31:55;7.20;;;5.30;;
68744;SDS011;66104;45.456;11.064;2023-05-21T13:34:31;6.90;;;5.60;;
68744;SDS011;66104;45.456;11.064;2023-05-21T13:37:08;8.50;;;5.30;;
68744;SDS011;66104;45.456;11.064;2023-05-21T13:39:46;9.00;;;6.00;;
68744;SDS011;66104;45.456;11.064;2023-05-21T13:42:23;7.10;;;5.90;;
68744;SDS011;66104;45.456;11.064;2023-05-21T13:45:00;8.30;;;5.60;;
68744;SDS011;66104;45.456;11.064;2023-05-21T13:47:38;7.70;;;5.70;;
68744;SDS011;66104;45.456;11.064;2023-05-21T13:50:15;8.30;;;5.40;;
68744;SDS011;66104;45.456;11.064;2023-05-21T13:52:53;10.40;;;5.70;;
68744;SDS011;66104;45.456;11.064;2023-05-21T13:55:30;11.10;;;6.30;;
68744;SDS011;66104;45.456;11.064;2023-05-21T13:58:08;7.60;;;5.80;;
68744;SDS011;66104;45.456;11.064;2023-05-21T14:00:45;9.10;;;6.00;;
68744;SDS011;66104;45.456;11.064;2023-05-21T14:03:21;7.40;;;5.50;;
68744;SDS011;66104;45.456;11.064;2023-05-21T14:05:57;7.90;;;5.70;;
68744;SDS011;66104;45.456;11.064;2023-05-21T14:08:34;9.10;;;5.70;;
68744;SDS011;66104;45.456;11.064;2023-05-21T14:11:11;8.50;;;5.30;;
68744;SDS011;66104;45.456;11.064;2023-05-21T14:13:49;9.30;;;5.20;;
68744;SDS011;66104;45.456;11.064;2023-05-21T14:16:26;7.20;;;5.00;;
68744;SDS011;66104;45.456;11.064;2023-05-21T14:19:01;6.40;;;5.10;;
68744;SDS011;66104;45.456;11.064;2023-05-21T14:21:39;7.50;;;4.80;;
68744;SDS011;66104;45.456;11.064;2023-05-21T14:24:15;10.80;;;4.90;;
68744;SDS011;66104;45.456;11.064;2023-05-21T14:26:53;8.70;;;4.80;;
68744;SDS011;66104;45.456;11.064;2023-05-21T14:29:30;10.50;;;5.10;;
68744;SDS011;66104;45.456;11.064;2023-05-21T14:32:08;6.80;;;3.90;;
68744;SDS011;66104;45.456;11.064;2023-05-21T14:34:46;5.10;;;4.20;;
68744;SDS011;66104;45.456;11.064;2023-05-21T14:37:22;9.50;;;5.60;;
68744;SDS011;66104;45.456;11.064;2023-05-21T14:40:00;8.60;;;5.30;;
68744;SDS011;66104;45.456;11.064;2023-05-21T14:42:38;7.10;;;4.60;;
68744;SDS011;66104;45.456;11.064;2023-05-21T14:45:16;6.30;;;4.70;;
68744;SDS011;66104;45.456;11.064;2023-05-21T14:47:53;8.70;;;5.20;;
68744;SDS011;66104;45.456;11.064;2023-05-21T14:50:30;7.40;;;4.40;;
68744;SDS011;66104;45.456;11.064;2023-05-21T14:53:08;9.10;;;4.50;;
68744;SDS011;66104;45.456;11.064;2023-05-21T14:55:48;7.30;;;4.50;;
68744;SDS011;66104;45.456;11.064;2023-05-21T14:58:25;7.90;;;5.10;;
68744;SDS011;66104;45.456;11.064;2023-05-21T15:01:03;8.00;;;5.40;;
68744;SDS011;66104;45.456;11.064;2023-05-21T15:03:39;10.00;;;4.50;;
68744;SDS011;66104;45.456;11.064;2023-05-21T15:06:16;7.80;;;5.00;;
68744;SDS011;66104;45.456;11.064;2023-05-21T15:08:54;6.60;;;4.70;;
68744;SDS011;66104;45.456;11.064;2023-05-21T15:11:31;8.40;;;5.20;;
68744;SDS011;66104;45.456;11.064;2023-05-21T15:14:07;7.20;;;5.00;;
68744;SDS011;66104;45.456;11.064;2023-05-21T15:16:45;9.00;;;4.80;;
68744;SDS011;66104;45.456;11.064;2023-05-21T15:19:22;6.20;;;4.70;;
68744;SDS011;66104;45.456;11.064;2023-05-21T15:22:00;8.30;;;5.10;;
68744;SDS011;66104;45.456;11.064;2023-05-21T15:24:38;6.80;;;5.20;;
68744;SDS011;66104;45.456;11.064;2023-05-21T15:27:16;8.60;;;5.20;;
68744;SDS011;66104;45.456;11.064;2023-05-21T15:29:55;9.10;;;5.40;;
68744;SDS011;66104;45.456;11.064;2023-05-21T15:32:32;7.90;;;5.40;;
68744;SDS011;66104;45.456;11.064;2023-05-21T15:35:12;11.90;;;5.20;;
68744;SDS011;66104;45.456;11.064;2023-05-21T15:37:50;9.70;;;5.10;;
68744;SDS011;66104;45.456;11.064;2023-05-21T15:40:28;5.90;;;4.70;;